createdAt,value
2023-05-21T00:01:10.608Z,23.24
2023-05-21T00:03:41.928Z,23.24
2023-05-21T00:06:09.399Z,23.24
2023-05-21T00:08:36.611Z,23.25
2023-05-21T00:11:03.891Z,23.23
2023-05-21T00:13:31.089Z,23.23
2023-05-21T00:15:58.410Z,23.22
2023-05-21T00:18:25.726Z,23.22
2023-05-21T00:20:53.105Z,23.23
2023-05-21T00:23:21.481Z,23.22
2023-05-21T00:25:50.422Z,23.23
2023-05-21T00:28:17.646Z,23.26
2023-05-21T00:30:45.771Z,23.22
2023-05-21T00:33:13.954Z,23.23
2023-05-21T00:35:41.321Z,23.21
2023-05-21T00:38:08.733Z,23.21
2023-05-21T00:40:36.629Z,23.21
2023-05-21T00:43:03.893Z,23.22
2023-05-21T00:45:31.143Z,23.22
2023-05-21T00:47:58.654Z,23.20
2023-05-21T00:50:26.086Z,23.22
2023-05-21T00:52:53.422Z,23.20
2023-05-21T00:55:20.855Z,23.21
2023-05-21T00:57:49.453Z,23.21
2023-05-21T01:00:16.836Z,23.21
2023-05-21T01:02:45.824Z,23.21
2023-05-21T01:05:13.305Z,23.24
2023-05-21T01:07:41.873Z,23.20
2023-05-21T01:10:10.545Z,23.19
2023-05-21T01:12:39.544Z,23.19
2023-05-21T01:15:06.964Z,23.22
2023-05-21T01:17:34.497Z,23.18
2023-05-21T01:20:08.016Z,23.17
2023-05-21T01:22:47.507Z,23.17
2023-05-21T01:25:15.053Z,23.17
2023-05-21T01:27:42.327Z,23.18
2023-05-21T01:30:09.892Z,23.19
2023-05-21T01:32:50.715Z,23.18
2023-05-21T01:35:23.181Z,23.19
2023-05-21T01:38:04.633Z,23.18
2023-05-21T01:40:54.281Z,23.18
2023-05-21T01:43:23.739Z,23.18
2023-05-21T01:45:54.702Z,23.18
2023-05-21T01:48:27.364Z,23.19
2023-05-21T01:50:55.961Z,23.17
2023-05-21T01:53:23.210Z,23.17
2023-05-21T01:55:50.447Z,23.18
2023-05-21T01:58:18.464Z,23.17
2023-05-21T02:00:46.603Z,23.17
2023-05-21T02:03:17.368Z,23.17
2023-05-21T02:05:45.027Z,23.17
2023-05-21T02:08:12.900Z,23.17
2023-05-21T02:10:40.281Z,23.18
2023-05-21T02:13:07.653Z,23.18
2023-05-21T02:15:35.451Z,23.17
2023-05-21T02:18:03.468Z,23.16
2023-05-21T02:20:31.383Z,23.16
2023-05-21T02:22:58.626Z,23.16
2023-05-21T02:25:25.892Z,23.17
2023-05-21T02:27:53.965Z,23.15
2023-05-21T02:30:21.393Z,23.16
2023-05-21T02:32:48.954Z,23.15
2023-05-21T02:35:16.323Z,23.15
2023-05-21T02:37:46.748Z,23.14
2023-05-21T02:40:14.159Z,23.14
2023-05-21T02:42:41.670Z,23.15
2023-05-21T02:45:10.974Z,23.15
2023-05-21T02:47:38.640Z,23.14
2023-05-21T02:50:07.812Z,23.14
2023-05-21T02:52:35.476Z,23.14
2023-05-21T02:55:02.788Z,23.14
2023-05-21T02:57:30.045Z,23.14
2023-05-21T02:59:57.256Z,23.13
2023-05-21T03:02:24.673Z,23.14
2023-05-21T03:04:52.043Z,23.13
2023-05-21T03:07:20.331Z,23.11
2023-05-21T03:09:47.541Z,23.13
2023-05-21T03:12:14.794Z,23.13
2023-05-21T03:14:46.279Z,23.12
2023-05-21T03:17:17.122Z,23.12
2023-05-21T03:19:44.810Z,23.13
2023-05-21T03:22:12.089Z,23.13
2023-05-21T03:24:39.832Z,23.13
2023-05-21T03:27:07.514Z,23.11
2023-05-21T03:29:35.205Z,23.12
2023-05-21T03:32:02.831Z,23.11
2023-05-21T03:34:30.223Z,23.12
2023-05-21T03:36:57.478Z,23.11
2023-05-21T03:39:24.686Z,23.14
2023-05-21T03:41:52.144Z,23.11
2023-05-21T03:44:19.355Z,23.12
2023-05-21T03:46:46.625Z,23.13
2023-05-21T03:49:15.260Z,23.11
2023-05-21T03:51:42.516Z,23.10
2023-05-21T03:54:09.738Z,23.11
2023-05-21T03:56:36.949Z,23.12
2023-05-21T03:59:04.224Z,23.13
2023-05-21T04:01:33.013Z,23.12
2023-05-21T04:04:00.503Z,23.11
2023-05-21T04:06:28.122Z,23.12
2023-05-21T04:08:55.426Z,23.12
2023-05-21T04:11:22.720Z,23.14
2023-05-21T04:13:51.640Z,23.12
2023-05-21T04:16:19.495Z,23.16
2023-05-21T04:18:47.533Z,23.13
2023-05-21T04:21:14.838Z,23.12
2023-05-21T04:23:42.204Z,23.12
2023-05-21T04:26:09.411Z,23.12
2023-05-21T04:28:36.892Z,23.14
2023-05-21T04:31:05.729Z,23.13
2023-05-21T04:33:32.996Z,23.17
2023-05-21T04:36:00.268Z,23.15
2023-05-21T04:38:27.482Z,23.15
2023-05-21T04:40:55.683Z,23.14
2023-05-21T04:43:26.547Z,23.13
2023-05-21T04:45:56.974Z,23.14
2023-05-21T04:48:27.493Z,23.15
2023-05-21T04:50:56.023Z,23.16
2023-05-21T04:53:23.841Z,23.16
2023-05-21T04:55:51.152Z,23.17
2023-05-21T04:58:19.157Z,23.17
2023-05-21T05:00:46.942Z,23.17
2023-05-21T05:03:14.692Z,23.18
2023-05-21T05:05:42.139Z,23.18
2023-05-21T05:08:09.366Z,23.18
2023-05-21T05:10:36.783Z,23.18
2023-05-21T05:13:04.075Z,23.20
2023-05-21T05:15:31.277Z,23.20
2023-05-21T05:17:58.524Z,23.20
2023-05-21T05:20:25.931Z,23.22
2023-05-21T05:22:53.179Z,23.20
2023-05-21T05:25:21.127Z,23.20
2023-05-21T05:27:48.381Z,23.22
2023-05-21T05:30:15.642Z,23.21
2023-05-21T05:32:42.880Z,23.20
2023-05-21T05:35:10.775Z,23.21
2023-05-21T05:37:38.025Z,23.20
2023-05-21T05:40:06.196Z,23.21
2023-05-21T05:42:33.501Z,23.20
2023-05-21T05:45:00.876Z,23.22
2023-05-21T05:47:28.117Z,23.22
2023-05-21T05:49:55.380Z,23.22
2023-05-21T05:52:22.623Z,23.21
2023-05-21T05:54:49.865Z,23.23
2023-05-21T05:57:17.146Z,23.22
2023-05-21T05:59:44.364Z,23.23
2023-05-21T06:02:11.724Z,23.23
2023-05-21T06:04:38.951Z,23.23
2023-05-21T06:07:06.522Z,23.22
2023-05-21T06:09:33.773Z,23.23
2023-05-21T06:12:01.295Z,23.24
2023-05-21T06:14:28.501Z,23.22
2023-05-21T06:16:55.702Z,23.23
2023-05-21T06:19:22.973Z,23.24
2023-05-21T06:21:50.678Z,23.25
2023-05-21T06:24:17.906Z,23.25
2023-05-21T06:26:45.148Z,23.26
2023-05-21T06:29:13.632Z,23.29
2023-05-21T06:31:42.707Z,23.32
2023-05-21T06:34:11.708Z,23.34
2023-05-21T06:36:39.030Z,23.35
2023-05-21T06:39:06.295Z,23.37
2023-05-21T06:41:33.564Z,23.40
2023-05-21T06:44:00.770Z,23.42
2023-05-21T06:46:28.132Z,23.43
2023-05-21T06:48:55.856Z,23.45
2023-05-21T06:51:23.139Z,23.47
2023-05-21T06:53:50.966Z,23.48
2023-05-21T06:56:18.190Z,23.51
2023-05-21T06:58:45.534Z,23.50
2023-05-21T07:01:12.967Z,23.52
2023-05-21T07:03:40.354Z,23.53
2023-05-21T07:06:07.669Z,23.53
2023-05-21T07:08:34.990Z,23.55
2023-05-21T07:11:02.587Z,23.55
2023-05-21T07:13:30.414Z,23.54
2023-05-21T07:15:57.860Z,23.54
2023-05-21T07:18:25.114Z,23.53
2023-05-21T07:20:54.637Z,23.52
2023-05-21T07:23:22.143Z,23.50
2023-05-21T07:25:49.534Z,23.50
2023-05-21T07:28:16.817Z,23.48
2023-05-21T07:30:44.209Z,23.47
2023-05-21T07:33:12.559Z,23.46
2023-05-21T07:35:39.972Z,23.46
2023-05-21T07:38:07.238Z,23.46
2023-05-21T07:40:34.436Z,23.46
2023-05-21T07:43:01.697Z,23.44
2023-05-21T07:45:32.090Z,23.46
2023-05-21T07:47:59.360Z,23.45
2023-05-21T07:50:26.765Z,23.46
2023-05-21T07:52:54.047Z,23.45
2023-05-21T07:55:21.689Z,23.45
2023-05-21T07:57:49.509Z,23.46
2023-05-21T08:00:16.827Z,23.45
2023-05-21T08:02:44.380Z,23.46
2023-05-21T08:05:12.019Z,23.44
2023-05-21T08:07:39.294Z,23.45
2023-05-21T08:10:07.076Z,23.45
2023-05-21T08:12:34.363Z,23.46
2023-05-21T08:15:01.553Z,23.46
2023-05-21T08:17:28.913Z,23.46
2023-05-21T08:19:56.591Z,23.45
2023-05-21T08:22:23.809Z,23.46
2023-05-21T08:24:51.071Z,23.46
2023-05-21T08:27:18.302Z,23.46
2023-05-21T08:29:45.808Z,23.46
2023-05-21T08:32:13.118Z,23.46
2023-05-21T08:34:40.342Z,23.46
2023-05-21T08:37:07.567Z,23.46
2023-05-21T08:39:34.877Z,23.47
2023-05-21T08:42:40.643Z,23.46
2023-05-21T08:45:08.551Z,23.46
2023-05-21T08:47:37.159Z,23.46
2023-05-21T08:50:15.478Z,23.46
2023-05-21T08:52:42.837Z,23.46
2023-05-21T08:55:10.738Z,23.46
2023-05-21T08:57:38.334Z,23.47
2023-05-21T09:00:09.968Z,23.48
2023-05-21T09:02:40.897Z,23.48
2023-05-21T09:05:09.969Z,23.48
2023-05-21T09:07:39.794Z,23.50
2023-05-21T09:10:13.471Z,23.48
2023-05-21T09:12:40.910Z,23.48
2023-05-21T09:15:08.598Z,23.48
2023-05-21T09:17:36.218Z,23.48
2023-05-21T09:20:17.369Z,23.49
2023-05-21T09:22:46.622Z,23.50
2023-05-21T09:25:22.034Z,23.49
2023-05-21T09:27:49.325Z,23.48
2023-05-21T09:30:18.155Z,23.50
2023-05-21T09:32:46.685Z,23.52
2023-05-21T09:35:15.017Z,23.51
2023-05-21T09:37:47.580Z,23.51
2023-05-21T09:40:22.067Z,23.52
2023-05-21T09:42:50.796Z,23.52
2023-05-21T09:45:22.307Z,23.52
2023-05-21T09:47:50.604Z,23.52
2023-05-21T09:50:27.003Z,23.53
2023-05-21T09:52:55.489Z,23.64
2023-05-21T09:55:24.722Z,23.69
2023-05-21T09:57:52.848Z,23.77
2023-05-21T10:00:24.800Z,23.79
2023-05-21T10:02:56.158Z,23.88
2023-05-21T10:05:27.752Z,23.93
2023-05-21T10:08:01.908Z,23.88
2023-05-21T10:10:31.035Z,23.85
2023-05-21T10:13:09.930Z,23.84
2023-05-21T10:15:47.397Z,23.84
2023-05-21T10:18:17.234Z,23.84
2023-05-21T10:20:45.038Z,23.78
2023-05-21T10:23:13.145Z,23.75
2023-05-21T10:25:41.168Z,23.73
2023-05-21T10:28:08.422Z,23.72
2023-05-21T10:30:37.162Z,23.71
2023-05-21T10:33:05.366Z,23.71
2023-05-21T10:35:34.430Z,23.71
2023-05-21T10:38:04.046Z,23.70
2023-05-21T10:40:33.634Z,23.79
2023-05-21T10:43:28.698Z,23.84
2023-05-21T10:46:33.559Z,23.86
2023-05-21T10:49:34.790Z,23.88
2023-05-21T10:52:51.394Z,23.90
2023-05-21T10:55:29.685Z,23.92
2023-05-21T10:58:14.462Z,23.96
2023-05-21T11:00:43.611Z,23.94
2023-05-21T11:03:13.275Z,23.89
2023-05-21T11:05:54.093Z,23.88
2023-05-21T11:08:35.613Z,23.88
2023-05-21T11:11:03.763Z,23.88
2023-05-21T11:17:38.860Z,23.85
2023-05-21T11:20:10.787Z,23.83
2023-05-21T11:22:38.793Z,23.82
2023-05-21T11:25:06.610Z,23.82
2023-05-21T11:27:41.241Z,23.82
2023-05-21T11:30:10.334Z,23.83
2023-05-21T11:32:39.907Z,23.84
2023-05-21T11:35:08.157Z,23.84
2023-05-21T11:37:40.782Z,23.85
2023-05-21T11:40:37.248Z,23.94
2023-05-21T11:43:04.824Z,24.03
2023-05-21T11:45:33.224Z,24.02
2023-05-21T11:48:01.156Z,23.98
2023-05-21T11:50:30.837Z,23.96
2023-05-21T11:52:59.868Z,24.03
2023-05-21T11:55:27.865Z,24.00
2023-05-21T11:57:55.649Z,24.00
2023-05-21T12:00:23.305Z,24.01
2023-05-21T12:02:55.932Z,24.03
2023-05-21T12:05:24.518Z,24.05
2023-05-21T12:07:52.533Z,24.05
2023-05-21T12:10:24.257Z,24.05
2023-05-21T12:12:55.415Z,24.11
2023-05-21T12:15:25.784Z,24.11
2023-05-21T12:17:53.458Z,24.14
2023-05-21T12:20:21.093Z,24.21
2023-05-21T12:22:52.333Z,24.27
2023-05-21T12:25:21.000Z,24.29
2023-05-21T12:27:49.677Z,24.29
2023-05-21T12:30:17.181Z,24.27
2023-05-21T12:32:44.549Z,24.17
2023-05-21T12:35:22.368Z,24.11
2023-05-21T12:37:51.034Z,24.15
2023-05-21T12:40:19.094Z,24.18
2023-05-21T12:42:46.424Z,24.16
2023-05-21T12:45:14.161Z,24.13
2023-05-21T12:47:44.450Z,24.10
2023-05-21T12:50:13.787Z,24.08
2023-05-21T12:52:43.011Z,24.07
2023-05-21T12:55:12.556Z,24.08
2023-05-21T12:57:39.810Z,24.08
2023-05-21T13:00:12.638Z,24.08
2023-05-21T13:02:41.654Z,24.09
2023-05-21T13:05:11.530Z,24.08
2023-05-21T13:07:40.962Z,24.10
2023-05-21T13:10:09.109Z,24.08
2023-05-21T13:12:36.721Z,24.08
2023-05-21T13:15:05.417Z,24.08
2023-05-21T13:17:32.713Z,24.08
2023-05-21T13:20:20.400Z,24.08
2023-05-21T13:22:49.257Z,24.08
2023-05-21T13:25:20.004Z,24.08
2023-05-21T13:27:48.330Z,24.13
2023-05-21T13:30:15.934Z,24.18
2023-05-21T13:32:43.828Z,24.22
2023-05-21T13:35:12.102Z,24.27
2023-05-21T13:37:40.545Z,24.27
2023-05-21T13:40:14.483Z,24.29
2023-05-21T13:42:45.546Z,24.28
2023-05-21T13:45:14.113Z,24.31
2023-05-21T13:47:42.132Z,24.32
2023-05-21T13:50:10.350Z,24.33
2023-05-21T13:52:38.277Z,24.33
2023-05-21T13:55:06.435Z,24.33
2023-05-21T13:57:34.076Z,24.35
2023-05-21T14:00:01.734Z,24.35
2023-05-21T14:02:29.460Z,24.35
2023-05-21T14:04:56.877Z,24.34
2023-05-21T14:07:24.132Z,24.36
2023-05-21T14:09:52.394Z,24.33
2023-05-21T14:12:19.782Z,24.36
2023-05-21T14:14:49.705Z,24.38
2023-05-21T14:17:17.376Z,24.37
2023-05-21T14:19:44.861Z,24.34
2023-05-21T14:22:12.092Z,24.44
2023-05-21T14:24:39.457Z,24.48
2023-05-21T14:27:06.906Z,24.51
2023-05-21T14:29:34.357Z,24.53
2023-05-21T14:32:01.947Z,24.58
2023-05-21T14:34:29.320Z,24.64
2023-05-21T14:36:56.651Z,24.63
2023-05-21T14:39:24.200Z,24.59
2023-05-21T14:41:51.866Z,24.57
2023-05-21T14:44:20.020Z,24.58
2023-05-21T14:46:47.228Z,24.56
2023-05-21T14:49:14.628Z,24.59
2023-05-21T14:51:43.577Z,24.57
2023-05-21T14:54:10.821Z,24.58
2023-05-21T14:56:38.290Z,24.59
2023-05-21T14:59:05.534Z,24.51
2023-05-21T15:01:33.189Z,24.48
2023-05-21T15:04:02.705Z,24.45
2023-05-21T15:06:30.497Z,24.46
2023-05-21T15:08:57.707Z,24.48
2023-05-21T15:11:25.618Z,24.47
2023-05-21T15:13:55.387Z,24.49
2023-05-21T15:16:29.881Z,24.51
2023-05-21T15:18:57.168Z,24.52
2023-05-21T15:21:26.483Z,24.56
2023-05-21T15:23:55.158Z,24.51
2023-05-21T15:26:22.767Z,24.47
2023-05-21T15:28:50.055Z,24.51
2023-05-21T15:31:17.396Z,24.51
2023-05-21T15:33:44.911Z,24.52
2023-05-21T15:36:12.165Z,24.55
2023-05-21T15:38:39.411Z,24.55
2023-05-21T15:41:07.256Z,24.56
2023-05-21T15:43:34.667Z,24.56
2023-05-21T15:46:01.925Z,24.56
2023-05-21T15:48:29.176Z,24.56
2023-05-21T15:50:56.419Z,24.54
2023-05-21T15:53:23.693Z,24.56
2023-05-21T15:55:50.937Z,24.60
2023-05-21T15:58:18.291Z,24.61
2023-05-21T16:00:45.739Z,24.59
2023-05-21T16:03:13.453Z,24.56
2023-05-21T16:05:40.942Z,24.63
2023-05-21T16:08:10.817Z,24.66
2023-05-21T16:10:39.968Z,24.68
2023-05-21T16:13:09.577Z,24.69
2023-05-21T16:15:37.184Z,24.66
2023-05-21T16:18:05.189Z,24.71
2023-05-21T16:20:33.364Z,24.73
2023-05-21T16:23:00.877Z,24.74
2023-05-21T16:25:28.282Z,24.76
2023-05-21T16:27:55.762Z,24.76
2023-05-21T16:30:23.829Z,24.75
2023-05-21T16:32:51.383Z,24.70
2023-05-21T16:35:18.782Z,24.69
2023-05-21T16:37:46.291Z,24.68
2023-05-21T16:40:29.689Z,24.67
2023-05-21T16:42:57.030Z,24.67
2023-05-21T16:45:24.309Z,24.67
2023-05-21T16:47:52.268Z,24.69
2023-05-21T16:50:20.262Z,24.64
2023-05-21T16:52:47.592Z,24.60
2023-05-21T16:55:15.289Z,24.58
2023-05-21T16:57:42.515Z,24.66
2023-05-21T17:00:12.991Z,24.70
2023-05-21T17:02:40.389Z,24.68
2023-05-21T17:05:08.105Z,24.62
2023-05-21T17:07:35.430Z,24.58
2023-05-21T17:10:04.963Z,24.61
2023-05-21T17:12:32.656Z,24.62
2023-05-21T17:15:00.303Z,24.59
2023-05-21T17:17:27.908Z,24.59
2023-05-21T17:19:55.461Z,24.53
2023-05-21T17:22:22.891Z,24.51
2023-05-21T17:24:50.558Z,24.56
2023-05-21T17:27:17.843Z,24.63
2023-05-21T17:29:45.082Z,24.60
2023-05-21T17:32:12.396Z,24.58
2023-05-21T17:34:39.728Z,24.57
2023-05-21T17:37:07.108Z,24.54
2023-05-21T17:39:34.366Z,24.52
2023-05-21T17:42:01.792Z,24.51
2023-05-21T17:44:29.074Z,24.51
2023-05-21T17:46:56.628Z,24.53
2023-05-21T17:49:24.029Z,24.53
2023-05-21T17:51:51.529Z,24.50
2023-05-21T17:54:19.680Z,24.55
2023-05-21T17:56:46.874Z,24.64
2023-05-21T17:59:14.708Z,24.68
2023-05-21T18:01:41.960Z,24.73
2023-05-21T18:04:10.823Z,24.61
2023-05-21T18:06:38.669Z,24.59
2023-05-21T18:09:07.754Z,24.55
2023-05-21T18:11:35.492Z,24.52
2023-05-21T18:14:04.005Z,24.48
2023-05-21T18:16:31.685Z,24.48
2023-05-21T18:19:02.120Z,24.61
2023-05-21T18:21:29.408Z,24.70
2023-05-21T18:23:56.830Z,24.71
2023-05-21T18:26:24.639Z,24.75
2023-05-21T18:28:52.060Z,24.77
2023-05-21T18:31:19.410Z,24.71
2023-05-21T18:33:46.697Z,24.68
2023-05-21T18:36:14.116Z,24.64
2023-05-21T18:38:41.546Z,24.63
2023-05-21T18:41:08.864Z,24.62
2023-05-21T18:43:36.354Z,24.61
2023-05-21T18:46:03.678Z,24.60
2023-05-21T18:48:30.999Z,24.63
2023-05-21T18:50:58.523Z,24.60
2023-05-21T18:53:25.741Z,24.54
2023-05-21T18:55:52.965Z,24.50
2023-05-21T18:58:20.364Z,24.47
2023-05-21T19:00:47.674Z,24.48
2023-05-21T19:03:16.236Z,24.46
2023-05-21T19:05:43.607Z,24.45
2023-05-21T19:08:11.035Z,24.46
2023-05-21T19:10:39.295Z,24.49
2023-05-21T19:13:06.874Z,24.47
2023-05-21T19:15:34.136Z,24.44
2023-05-21T19:18:02.582Z,24.43
2023-05-21T19:20:29.887Z,24.42
2023-05-21T19:22:57.393Z,24.40
2023-05-21T19:25:24.705Z,24.40
2023-05-21T19:27:52.856Z,24.42
2023-05-21T19:30:20.396Z,24.45
2023-05-21T19:32:48.025Z,24.46
2023-05-21T19:35:16.503Z,24.45
2023-05-21T19:37:43.729Z,24.42
2023-05-21T19:40:11.599Z,24.42
2023-05-21T19:42:39.353Z,24.38
2023-05-21T19:45:09.449Z,24.38
2023-05-21T19:47:36.814Z,24.38
2023-05-21T19:50:04.775Z,24.37
2023-05-21T19:52:32.077Z,24.37
2023-05-21T19:55:04.668Z,24.37
2023-05-21T19:57:32.782Z,24.38
2023-05-21T20:00:00.117Z,24.36
2023-05-21T20:02:28.756Z,24.38
2023-05-21T20:04:57.839Z,24.38
2023-05-21T20:07:25.608Z,24.40
2023-05-21T20:09:52.899Z,24.38
2023-05-21T20:12:20.438Z,24.38
2023-05-21T20:14:50.452Z,24.38
2023-05-21T20:17:20.827Z,24.39
2023-05-21T20:19:48.746Z,24.40
2023-05-21T20:22:19.758Z,24.40
2023-05-21T20:24:47.282Z,24.40
2023-05-21T20:27:19.699Z,24.38
2023-05-21T20:29:47.297Z,24.38
2023-05-21T20:32:14.669Z,24.38
2023-05-21T20:34:54.341Z,24.38
2023-05-21T20:37:32.248Z,24.40
2023-05-21T20:39:59.828Z,24.40
2023-05-21T20:42:31.180Z,24.40
2023-05-21T20:44:59.125Z,24.40
2023-05-21T20:47:29.909Z,24.40
2023-05-21T20:49:58.733Z,24.43
2023-05-21T20:52:26.823Z,24.40
2023-05-21T20:54:54.794Z,24.40
2023-05-21T20:57:22.639Z,24.42
2023-05-21T20:59:51.473Z,24.40
2023-05-21T21:02:19.679Z,24.42
2023-05-21T21:04:50.651Z,24.40
2023-05-21T21:07:18.523Z,24.42
2023-05-21T21:09:46.924Z,24.41
2023-05-21T21:12:25.321Z,24.43
2023-05-21T21:14:54.415Z,24.47
2023-05-21T21:17:22.020Z,24.44
2023-05-21T21:19:49.296Z,24.43
2023-05-21T21:22:17.006Z,24.43
2023-05-21T21:24:44.563Z,24.43
2023-05-21T21:27:12.522Z,24.42
2023-05-21T21:29:39.844Z,24.43
2023-05-21T21:32:07.552Z,24.42
2023-05-21T21:34:35.101Z,24.40
2023-05-21T21:37:02.833Z,24.42
2023-05-21T21:39:30.229Z,24.42
2023-05-21T21:41:58.135Z,24.42
2023-05-21T21:44:25.631Z,24.34
2023-05-21T21:46:52.892Z,24.38
2023-05-21T21:49:20.523Z,24.39
2023-05-21T21:51:48.382Z,24.41
2023-05-21T21:54:15.600Z,24.42
2023-05-21T21:56:42.855Z,24.38
2023-05-21T21:59:10.401Z,24.41
2023-05-21T22:01:37.880Z,24.43
2023-05-21T22:04:05.308Z,24.42
2023-05-21T22:06:33.173Z,24.42
2023-05-21T22:09:00.520Z,24.43
2023-05-21T22:11:28.393Z,24.46
2023-05-21T22:13:56.079Z,24.42
2023-05-21T22:16:24.890Z,24.40
2023-05-21T22:18:54.105Z,24.43
2023-05-21T22:21:26.986Z,24.39
2023-05-21T22:23:54.627Z,24.37
2023-05-21T22:26:23.317Z,24.37
2023-05-21T22:28:51.417Z,24.37
2023-05-21T22:31:19.039Z,24.37
2023-05-21T22:33:46.414Z,24.36
2023-05-21T22:36:13.634Z,24.36
2023-05-21T22:38:41.000Z,24.36
2023-05-21T22:41:08.591Z,24.36
2023-05-21T22:43:36.198Z,24.35
2023-05-21T22:46:03.695Z,24.36
2023-05-21T22:48:31.118Z,24.35
2023-05-21T22:50:58.481Z,24.35
2023-05-21T22:53:26.428Z,24.34
2023-05-21T22:55:53.940Z,24.35
2023-05-21T22:58:21.248Z,24.35
2023-05-21T23:00:48.874Z,24.36
2023-05-21T23:03:16.853Z,24.34
2023-05-21T23:05:44.536Z,24.34
2023-05-21T23:08:12.420Z,24.35
2023-05-21T23:10:41.893Z,24.35
2023-05-21T23:13:09.286Z,24.35
2023-05-21T23:15:38.973Z,24.34
2023-05-21T23:18:07.687Z,24.34
2023-05-21T23:20:35.211Z,24.34
2023-05-21T23:23:02.428Z,24.34
2023-05-21T23:25:29.689Z,24.35
2023-05-21T23:27:56.936Z,24.35
2023-05-21T23:30:24.147Z,24.33
2023-05-21T23:32:51.734Z,24.34
2023-05-21T23:35:19.319Z,24.33
2023-05-21T23:37:46.505Z,24.33
2023-05-21T23:40:13.860Z,24.33
2023-05-21T23:42:41.275Z,24.33
2023-05-21T23:45:08.715Z,24.33
2023-05-21T23:47:36.014Z,24.33
2023-05-21T23:50:03.241Z,24.32
2023-05-21T23:52:30.548Z,24.33
2023-05-21T23:54:57.925Z,24.33
2023-05-21T23:57:25.294Z,24.32
2023-05-21T23:59:52.512Z,24.33
